Appleton, Maine
Current Conditions -  °F | °C
As of 1:35 PM on Thursday 27 Nov 2014 (Local Time) from KRKD Reporting Station
Few Clouds Few Clouds  
Wind Chill: 28°   Ceiling: Unl
Heat Index: 34°   Visibility: 10mi
Dew Point: 25°   Wind: 7mph
Humidity: 70%   Direction: 310°NW
Pressure: 29.91"   Gusts: 16mph
Location:  44.2596°N, 69.2573°W
Report Text: KRKD 271835Z AUTO 31006G14KT 270V340 10SM FEW024 01/M04 A2991 RMK AO1
Loading
Personal Weather Stations






























Interactive Weather Map New forecast layout! Learn more

10-Day Weather Forecast

Advertisements
Track Severe Weather on mobile